Time;durP1;ratioP1;P1;durP2;ratioP2;P2;SDS_P1;SDS_P2;PMS_P1;PMS_P2;Temp;Humidity;BMP_temperature;BMP_pressure;BME280_temperature;BME280_humidity;BME280_pressure;Samples;Min_cycle;Max_cycle;Signal;HPM_P1;HPM_P2
2023/03/04 00:00:02;;;;;;;;;;;;;;;7.10;63.10;102582.50;5000833;28;19914;-85
2023/03/04 00:02:28;;;;;;;;;;;;;;;7.10;63.05;102582.50;5006237;28;20008;-83
2023/03/04 00:04:53;;;;;;;;;;;;;;;7.11;63.34;102578.81;5008780;28;20004;-84
2023/03/04 00:07:19;;;;;;;;;;;;;;;7.09;63.05;102584.34;4994256;28;19925;-85
2023/03/04 00:09:44;;;;;;;;;;;;;;;7.09;63.32;102586.19;4993780;28;19957;-83
2023/03/04 00:12:10;;;;;;;;;;;;;;;7.09;62.88;102575.44;5001290;28;19913;-83
2023/03/04 00:14:35;;;;;;;;;;;;;;;7.09;63.04;102578.13;4999250;28;19957;-83
2023/03/04 00:17:03;;;;;;;;;;;;;;;7.08;63.11;102580.00;5012759;28;20012;-83
2023/03/04 00:19:28;;;;;;;;;;;;;;;7.08;63.15;102576.44;4999740;28;19962;-86
2023/03/04 00:21:53;;;;;;;;;;;;;;;7.08;63.09;102581.81;4992307;28;19949;-84
2023/03/04 00:24:19;;;;;;;;;;;;;;;7.07;63.16;102572.94;5005106;28;19982;-85
2023/03/04 00:26:45;;;;;;;;;;;;;;;7.08;63.12;102579.13;5004485;28;19921;-83
2023/03/04 00:29:10;;;;;;;;;;;;;;;7.07;63.08;102575.63;5006312;28;19925;-82
2023/03/04 00:31:35;;;;;;;;;;;;;;;7.07;63.18;102574.78;5008094;28;19920;-83
2023/03/04 00:34:01;;;;;;;;;;;;;;;7.06;63.29;102568.59;4994021;28;19918;-83
2023/03/04 00:36:26;;;;;;;;;;;;;;;7.06;63.05;102571.25;5006003;28;20013;-82
2023/03/04 00:38:51;;;;;;;;;;;;;;;7.05;62.99;102574.94;5001125;28;19992;-84
2023/03/04 00:41:17;;;;;;;;;;;;;;;7.06;63.22;102568.59;4996618;28;19969;-83
2023/03/04 00:43:42;;;;;;;;;;;;;;;7.05;63.32;102566.88;4993427;28;20312;-84
2023/03/04 00:46:07;;;;;;;;;;;;;;;7.05;62.93;102566.06;4979014;28;19921;-83
2023/03/04 00:48:32;;;;;;;;;;;;;;;7.05;63.40;102574.13;5009517;28;19965;-84
2023/03/04 00:50:58;;;;;;;;;;;;;;;7.04;62.98;102573.28;5003948;28;19917;-84
2023/03/04 00:53:23;;;;;;;;;;;;;;;7.04;63.33;102575.13;4993316;28;19925;-85
2023/03/04 00:55:48;;;;;;;;;;;;;;;7.03;63.45;102566.25;4993027;28;20357;-84
2023/03/04 00:58:14;;;;;;;;;;;;;;;7.04;63.32;102575.97;5006136;28;19918;-84
2023/03/04 01:00:39;;;;;;;;;;;;;;;7.03;63.42;102573.44;5000917;28;19971;-84
2023/03/04 01:03:04;;;;;;;;;;;;;;;7.03;63.38;102576.13;5008253;28;20357;-84
2023/03/04 01:05:30;;;;;;;;;;;;;;;7.03;63.09;102577.00;4992963;28;19917;-85
2023/03/04 01:07:56;;;;;;;;;;;;;;;7.02;63.38;102572.63;4999556;28;20055;-84
2023/03/04 01:10:21;;;;;;;;;;;;;;;7.03;63.30;102579.69;5014287;28;20032;-83
2023/03/04 01:12:46;;;;;;;;;;;;;;;7.03;63.27;102582.38;5007342;28;19924;-84
2023/03/04 01:15:12;;;;;;;;;;;;;;;7.02;63.45;102580.69;5009498;28;19917;-84
2023/03/04 01:17:38;;;;;;;;;;;;;;;7.02;63.47;102580.69;5002048;28;19976;-84
2023/03/04 01:20:04;;;;;;;;;;;;;;;7.02;63.38;102575.31;5014068;28;20377;-84
2023/03/04 01:22:29;;;;;;;;;;;;;;;7.01;63.17;102581.69;5002113;28;19952;-84
2023/03/04 01:24:54;;;;;;;;;;;;;;;7.01;63.44;102568.25;5017296;28;20369;-85
2023/03/04 01:27:20;;;;;;;;;;;;;;;7.02;63.44;102578.00;5026103;28;19917;-83
2023/03/04 01:29:45;;;;;;;;;;;;;;;7.02;63.35;102571.78;5005095;28;19928;-84
2023/03/04 01:32:10;;;;;;;;;;;;;;;7.01;63.12;102565.56;5017171;28;19921;-84
2023/03/04 01:34:35;;;;;;;;;;;;;;;7.01;63.15;102568.25;5028515;28;19933;-84
2023/03/04 01:37:01;;;;;;;;;;;;;;;7.02;63.13;102564.56;5020428;28;19917;-84
2023/03/04 01:39:26;;;;;;;;;;;;;;;7.01;63.16;102568.25;5003840;28;19963;-83
2023/03/04 01:41:51;;;;;;;;;;;;;;;7.01;63.06;102559.38;4997593;28;20005;-84
2023/03/04 01:44:16;;;;;;;;;;;;;;;7.01;63.30;102564.75;5014684;28;20754;-83
2023/03/04 01:46:46;;;;;;;;;;;;;;;7.00;63.55;102563.88;5013358;28;19972;-85
2023/03/04 01:49:12;;;;;;;;;;;;;;;7.00;63.12;102552.31;5014191;28;19921;-84
2023/03/04 01:51:38;;;;;;;;;;;;;;;6.99;63.24;102543.41;5011570;28;19957;-85
2023/03/04 01:54:03;;;;;;;;;;;;;;;7.00;63.38;102547.75;4993943;28;20279;-84
2023/03/04 01:56:30;;;;;;;;;;;;;;;7.00;63.30;102547.75;5002364;28;19925;-85
2023/03/04 01:59:13;;;;;;;;;;;;;;;6.99;63.39;102540.72;4999491;28;19921;-84
2023/03/04 02:01:39;;;;;;;;;;;;;;;6.99;63.13;102529.97;5012357;28;20008;-86
2023/03/04 02:04:05;;;;;;;;;;;;;;;6.98;63.35;102532.81;5015045;28;19917;-85
2023/03/04 02:06:32;;;;;;;;;;;;;;;6.99;63.25;102526.47;5017289;28;19917;-85
2023/03/04 02:08:58;;;;;;;;;;;;;;;6.98;63.51;102525.63;5015103;28;20016;-86
2023/03/04 02:11:23;;;;;;;;;;;;;;;6.98;63.32;102522.09;5014874;28;20400;-84
2023/03/04 02:13:48;;;;;;;;;;;;;;;6.98;63.25;102514.88;5007129;28;20286;-82
2023/03/04 02:16:14;;;;;;;;;;;;;;;6.99;63.19;102518.41;4996815;28;19913;-83
2023/03/04 02:18:39;;;;;;;;;;;;;;;6.98;63.34;102516.72;5004701;28;19927;-86
2023/03/04 02:21:20;;;;;;;;;;;;;;;6.98;63.01;102512.19;4995400;28;19925;-84
2023/03/04 02:23:48;;;;;;;;;;;;;;;6.97;63.02;102518.56;5010226;28;19913;-84
2023/03/04 02:26:21;;;;;;;;;;;;;;;6.96;63.27;102514.22;4993322;28;19918;-83
2023/03/04 02:28:47;;;;;;;;;;;;;;;6.97;63.19;102520.41;4994874;28;19991;-84
2023/03/04 02:31:24;;;;;;;;;;;;;;;6.97;63.45;102531.16;5002322;28;20036;-84
2023/03/04 02:33:50;;;;;;;;;;;;;;;6.96;63.24;102514.22;5004494;28;19918;-84
2023/03/04 02:36:16;;;;;;;;;;;;;;;6.97;63.43;102517.72;5000147;28;20002;-84
2023/03/04 02:38:41;;;;;;;;;;;;;;;6.96;63.36;102510.69;4996126;28;20399;-84
2023/03/04 02:41:11;;;;;;;;;;;;;;;6.96;63.33;102511.53;5009166;28;19921;-83
2023/03/04 02:43:36;;;;;;;;;;;;;;;6.96;63.45;102503.47;5009333;28;19922;-84
2023/03/04 02:46:01;;;;;;;;;;;;;;;6.97;63.53;102504.31;4994542;28;20246;-84
2023/03/04 02:48:26;;;;;;;;;;;;;;;6.95;63.46;102507.16;4994664;28;19929;-83
2023/03/04 02:50:52;;;;;;;;;;;;;;;6.95;63.45;102501.78;4993709;28;19973;-84
2023/03/04 02:53:19;;;;;;;;;;;;;;;6.94;63.56;102500.94;5000569;28;20297;-84
2023/03/04 02:55:45;;;;;;;;;;;;;;;6.95;63.43;102501.78;5012623;28;20430;-85
2023/03/04 02:58:11;;;;;;;;;;;;;;;6.94;63.34;102506.31;5012235;28;20009;-84
2023/03/04 03:00:37;;;;;;;;;;;;;;;6.94;63.22;102500.94;4999781;28;19918;-82
2023/03/04 03:03:02;;;;;;;;;;;;;;;6.94;63.39;102487.50;5003251;28;20016;-83
2023/03/04 03:05:29;;;;;;;;;;;;;;;6.94;63.40;102500.94;5009504;28;19925;-83
2023/03/04 03:07:54;;;;;;;;;;;;;;;6.94;63.33;102494.75;5012460;28;19921;-86
2023/03/04 03:10:20;;;;;;;;;;;;;;;6.94;63.34;102495.56;4993626;28;19918;-84
2023/03/04 03:12:45;;;;;;;;;;;;;;;6.93;63.39;102493.91;4997319;28;19921;-84
2023/03/04 03:15:10;;;;;;;;;;;;;;;6.94;62.99;102489.38;5011164;28;19971;-84
2023/03/04 03:17:36;;;;;;;;;;;;;;;6.94;63.18;102490.19;5012191;28;19975;-84
2023/03/04 03:20:01;;;;;;;;;;;;;;;6.93;63.45;102487.72;5013168;28;20365;-85
2023/03/04 03:22:26;;;;;;;;;;;;;;;6.94;63.17;102489.38;5012486;28;19928;-84
2023/03/04 03:24:52;;;;;;;;;;;;;;;6.93;63.54;102495.78;5005165;28;20031;-84
2023/03/04 03:27:17;;;;;;;;;;;;;;;6.93;63.38;102487.72;5010893;28;19972;-85
2023/03/04 03:29:42;;;;;;;;;;;;;;;6.93;63.61;102487.72;5007678;28;19928;-83
2023/03/04 03:32:07;;;;;;;;;;;;;;;6.92;63.48;102481.47;4993419;28;19926;-84
2023/03/04 03:34:33;;;;;;;;;;;;;;;6.92;63.44;102484.16;4993724;28;19988;-84
2023/03/04 03:36:58;;;;;;;;;;;;;;;6.92;63.45;102478.78;5001597;28;20428;-83
2023/03/04 03:39:23;;;;;;;;;;;;;;;6.92;63.47;102478.78;4997503;28;19920;-85
2023/03/04 03:41:49;;;;;;;;;;;;;;;6.92;63.37;102478.78;5013762;28;19917;-83
2023/03/04 03:44:14;;;;;;;;;;;;;;;6.92;63.70;102484.16;4992185;28;19917;-84
2023/03/04 03:46:39;;;;;;;;;;;;;;;6.92;63.47;102477.97;5004835;28;19928;-85
2023/03/04 03:49:04;;;;;;;;;;;;;;;6.92;63.57;102484.16;5009815;28;19921;-83
2023/03/04 03:51:30;;;;;;;;;;;;;;;6.92;63.75;102483.34;5010960;28;20056;-85
2023/03/04 03:53:55;;;;;;;;;;;;;;;6.91;63.57;102482.50;5011598;28;20297;-84
2023/03/04 03:56:20;;;;;;;;;;;;;;;6.93;63.33;102476.97;5011656;28;19968;-84
2023/03/04 03:58:45;;;;;;;;;;;;;;;6.92;63.43;102477.97;5010424;28;19921;-86
2023/03/04 04:01:11;;;;;;;;;;;;;;;6.91;63.46;102487.03;5011097;28;19928;-83
2023/03/04 04:03:36;;;;;;;;;;;;;;;6.91;63.59;102485.19;5011124;28;19914;-83
2023/03/04 04:06:01;;;;;;;;;;;;;;;6.91;63.44;102481.66;5010543;28;20274;-83
2023/03/04 04:08:27;;;;;;;;;;;;;;;6.91;63.63;102478.97;5010452;28;20297;-84
2023/03/04 04:10:52;;;;;;;;;;;;;;;6.91;63.36;102484.34;4994803;28;19921;-84
2023/03/04 04:13:17;;;;;;;;;;;;;;;6.91;63.26;102481.66;5007278;28;19918;-84
2023/03/04 04:15:43;;;;;;;;;;;;;;;6.91;63.55;102487.03;4995851;28;19917;-82
2023/03/04 04:18:08;;;;;;;;;;;;;;;6.90;63.84;102480.84;4999731;28;19918;-84
2023/03/04 04:20:33;;;;;;;;;;;;;;;6.91;63.60;102484.34;5002881;28;19917;-83
2023/03/04 04:22:59;;;;;;;;;;;;;;;6.90;63.77;102485.34;4994616;28;20008;-86
2023/03/04 04:25:24;;;;;;;;;;;;;;;6.90;63.38;102483.53;5004682;28;19922;-83
2023/03/04 04:27:49;;;;;;;;;;;;;;;6.90;63.55;102483.53;4992146;28;19924;-83
2023/03/04 04:30:15;;;;;;;;;;;;;;;6.90;63.72;102482.66;5001462;28;19921;-84
2023/03/04 04:32:40;;;;;;;;;;;;;;;6.90;63.42;102482.66;5005820;28;19924;-83
2023/03/04 04:35:06;;;;;;;;;;;;;;;6.89;63.68;102483.69;5016867;28;19921;-84
2023/03/04 04:37:31;;;;;;;;;;;;;;;6.90;63.75;102482.66;5013058;28;19917;-84
2023/03/04 04:39:56;;;;;;;;;;;;;;;6.89;63.77;102487.22;5018386;28;19925;-84
2023/03/04 04:42:22;;;;;;;;;;;;;;;6.89;63.65;102489.88;5013395;28;19988;-84
2023/03/04 04:44:47;;;;;;;;;;;;;;;6.89;63.40;102483.69;4996762;28;20366;-82
2023/03/04 04:47:13;;;;;;;;;;;;;;;6.89;63.71;102495.25;4997547;28;19914;-84
2023/03/04 04:49:38;;;;;;;;;;;;;;;6.88;63.63;102495.47;5002059;28;19936;-83
2023/03/04 04:52:03;;;;;;;;;;;;;;;6.88;63.30;102493.59;5004233;28;20340;-84
2023/03/04 04:54:28;;;;;;;;;;;;;;;6.89;63.28;102500.63;5012924;28;19932;-84
2023/03/04 04:56:54;;;;;;;;;;;;;;;6.89;63.49;102491.75;5010714;28;19914;-83
2023/03/04 04:59:19;;;;;;;;;;;;;;;6.88;63.43;102500.84;4999032;28;20306;-82
2023/03/04 05:01:44;;;;;;;;;;;;;;;6.88;63.69;102490.91;5006258;28;20003;-84
2023/03/04 05:04:10;;;;;;;;;;;;;;;6.88;63.57;102496.28;5012051;28;19914;-85
2023/03/04 05:06:35;;;;;;;;;;;;;;;6.89;63.59;102495.25;4999040;28;19925;-82
2023/03/04 05:09:01;;;;;;;;;;;;;;;6.88;63.63;102498.97;5001101;28;19918;-85
2023/03/04 05:11:26;;;;;;;;;;;;;;;6.88;63.37;102490.91;5015518;28;20392;-83
2023/03/04 05:13:51;;;;;;;;;;;;;;;6.89;63.65;102489.88;5016967;28;20396;-83
2023/03/04 05:16:17;;;;;;;;;;;;;;;6.88;63.74;102488.22;5017016;28;19975;-85
2023/03/04 05:18:42;;;;;;;;;;;;;;;6.88;63.38;102484.72;5017724;28;19914;-84
2023/03/04 05:21:08;;;;;;;;;;;;;;;6.88;63.32;102485.53;5016075;28;19913;-85
2023/03/04 05:23:34;;;;;;;;;;;;;;;6.88;63.47;102488.22;5016358;28;20372;-84
2023/03/04 05:26:00;;;;;;;;;;;;;;;6.89;63.54;102492.56;5015252;28;19925;-84
2023/03/04 05:28:26;;;;;;;;;;;;;;;6.88;63.57;102485.53;4999257;28;20354;-84
2023/03/04 05:30:51;;;;;;;;;;;;;;;6.88;63.82;102490.09;4996043;28;19913;-84
2023/03/04 05:33:17;;;;;;;;;;;;;;;6.89;63.58;102492.56;4995657;28;20394;-84
2023/03/04 05:35:42;;;;;;;;;;;;;;;6.88;63.63;102496.28;4998594;28;19983;-83
2023/03/04 05:38:09;;;;;;;;;;;;;;;6.88;63.57;102493.59;5013371;28;19924;-84
2023/03/04 05:40:35;;;;;;;;;;;;;;;6.88;63.67;102492.78;5012804;28;19980;-83
2023/03/04 05:43:00;;;;;;;;;;;;;;;6.87;63.56;102489.22;5015109;28;19945;-85
2023/03/04 05:45:25;;;;;;;;;;;;;;;6.87;63.79;102486.53;5013392;28;19913;-83
2023/03/04 05:47:51;;;;;;;;;;;;;;;6.88;63.55;102498.16;5013770;28;19917;-84
2023/03/04 05:50:16;;;;;;;;;;;;;;;6.87;63.52;102499.97;5007937;28;19913;-84
2023/03/04 05:52:42;;;;;;;;;;;;;;;6.88;63.65;102498.97;4982489;28;19921;-85
2023/03/04 05:55:07;;;;;;;;;;;;;;;6.88;63.60;102506.19;5014094;28;19973;-83
2023/03/04 05:57:33;;;;;;;;;;;;;;;6.87;63.59;102502.66;5013483;28;20469;-83
2023/03/04 05:59:58;;;;;;;;;;;;;;;6.87;63.81;102510.72;5012983;28;20396;-84
2023/03/04 06:02:23;;;;;;;;;;;;;;;6.87;63.61;102505.34;4995652;28;19972;-86
2023/03/04 06:04:48;;;;;;;;;;;;;;;6.87;63.76;102512.56;5001738;28;19925;-84
2023/03/04 06:07:14;;;;;;;;;;;;;;;6.86;63.83;102510.91;5007348;28;20433;-84
2023/03/04 06:09:39;;;;;;;;;;;;;;;6.85;64.07;102502.00;4998011;28;19925;-84
2023/03/04 06:12:04;;;;;;;;;;;;;;;6.84;63.84;102503.00;5010718;28;20085;-83
2023/03/04 06:14:29;;;;;;;;;;;;;;;6.85;63.86;102509.22;5009346;28;19937;-84
2023/03/04 06:16:55;;;;;;;;;;;;;;;6.84;63.98;102497.63;5001381;28;20389;-83
2023/03/04 06:19:20;;;;;;;;;;;;;;;6.85;63.71;102509.22;4999349;28;20012;-84
2023/03/04 06:21:45;;;;;;;;;;;;;;;6.85;63.88;102502.00;4994762;28;19918;-84
2023/03/04 06:24:11;;;;;;;;;;;;;;;6.85;64.06;102499.31;5002561;28;19929;-84
2023/03/04 06:26:36;;;;;;;;;;;;;;;6.85;63.95;102501.16;5002252;28;19920;-83
2023/03/04 06:29:01;;;;;;;;;;;;;;;6.84;63.92;102500.31;5010703;28;20340;-85
2023/03/04 06:31:26;;;;;;;;;;;;;;;6.85;63.89;102498.47;5000012;28;19922;-82
2023/03/04 06:33:52;;;;;;;;;;;;;;;6.86;63.74;102508.22;4998306;28;19929;-83
2023/03/04 06:36:17;;;;;;;;;;;;;;;6.85;63.78;102509.22;4996089;28;19968;-85
2023/03/04 06:38:42;;;;;;;;;;;;;;;6.85;63.74;102515.41;5011815;28;19992;-83
2023/03/04 06:41:08;;;;;;;;;;;;;;;6.84;63.88;102513.75;5009941;28;19922;-82
2023/03/04 06:43:33;;;;;;;;;;;;;;;6.84;63.90;102513.75;5006389;28;20366;-82
2023/03/04 06:45:59;;;;;;;;;;;;;;;6.85;63.99;102520.78;5010400;28;19960;-84
2023/03/04 06:48:24;;;;;;;;;;;;;;;6.85;63.95;102520.78;4994493;28;19941;-82
2023/03/04 06:50:49;;;;;;;;;;;;;;;6.85;63.89;102519.97;4995420;28;19977;-83
2023/03/04 06:53:15;;;;;;;;;;;;;;;6.86;63.85;102516.28;4995692;28;19928;-83
2023/03/04 06:55:40;;;;;;;;;;;;;;;6.85;64.05;102519.97;5008847;28;19968;-83
2023/03/04 06:58:05;;;;;;;;;;;;;;;6.84;63.67;102519.13;4992917;28;20297;-84
2023/03/04 07:00:30;;;;;;;;;;;;;;;6.84;63.99;102520.97;5012476;28;19925;-83
2023/03/04 07:02:57;;;;;;;;;;;;;;;6.85;64.20;102525.34;5013183;28;19971;-84
2023/03/04 07:05:22;;;;;;;;;;;;;;;6.84;63.79;102519.13;4995915;28;19945;-82
2023/03/04 07:07:48;;;;;;;;;;;;;;;6.85;63.86;102525.34;5003422;28;19965;-82
2023/03/04 07:10:14;;;;;;;;;;;;;;;6.85;64.17;102517.28;4993760;28;19918;-83
2023/03/04 07:12:39;;;;;;;;;;;;;;;6.84;64.11;102521.81;5012119;28;20377;-82
2023/03/04 07:15:04;;;;;;;;;;;;;;;6.84;64.27;102532.56;5012172;28;20381;-81
2023/03/04 07:17:30;;;;;;;;;;;;;;;6.84;64.29;102526.34;4995832;28;20386;-81
2023/03/04 07:19:55;;;;;;;;;;;;;;;6.85;64.17;102531.53;5002154;28;19975;-82
2023/03/04 07:22:20;;;;;;;;;;;;;;;6.85;64.17;102533.38;5011998;28;19917;-81
2023/03/04 07:24:45;;;;;;;;;;;;;;;6.85;64.10;102533.38;4994472;28;19978;-82
2023/03/04 07:27:11;;;;;;;;;;;;;;;6.84;64.00;102543.31;5012013;28;19923;-82
2023/03/04 07:29:36;;;;;;;;;;;;;;;6.84;64.02;102540.63;5011882;28;20317;-83
2023/03/04 07:32:01;;;;;;;;;;;;;;;6.85;64.10;102544.13;5012753;28;20460;-83
2023/03/04 07:34:27;;;;;;;;;;;;;;;6.84;64.05;102556.72;5011039;28;19927;-83
2023/03/04 07:36:52;;;;;;;;;;;;;;;6.85;63.90;102555.72;5000008;28;20516;-83
2023/03/04 07:39:17;;;;;;;;;;;;;;;6.85;64.29;102554.88;5009544;28;19917;-84
2023/03/04 07:41:42;;;;;;;;;;;;;;;6.85;64.02;102560.25;4995954;28;20377;-83
2023/03/04 07:44:10;;;;;;;;;;;;;;;6.84;64.21;102562.09;4997478;28;19925;-83
2023/03/04 07:46:35;;;;;;;;;;;;;;;6.84;63.98;102563.97;5010992;28;19918;-83
2023/03/04 07:49:00;;;;;;;;;;;;;;;6.84;64.31;102567.47;5000788;28;20368;-82
2023/03/04 07:51:26;;;;;;;;;;;;;;;6.85;64.21;102561.09;4996432;28;19921;-81
2023/03/04 07:53:53;;;;;;;;;;;;;;;6.84;64.12;102562.09;4996059;28;19961;-82
2023/03/04 07:56:20;;;;;;;;;;;;;;;6.84;64.22;102567.47;5006780;28;19914;-82
2023/03/04 07:58:46;;;;;;;;;;;;;;;6.85;64.12;102566.47;5008126;28;19971;-83
2023/03/04 08:01:16;;;;;;;;;;;;;;;6.85;64.12;102574.50;5009089;28;20018;-82
2023/03/04 08:03:41;;;;;;;;;;;;;;;6.84;64.02;102570.16;5006849;28;19921;-84
2023/03/04 08:06:08;;;;;;;;;;;;;;;6.85;64.28;102573.69;5012705;28;20388;-83
2023/03/04 08:08:33;;;;;;;;;;;;;;;6.85;64.14;102571.00;4997313;28;19959;-83
2023/03/04 08:10:59;;;;;;;;;;;;;;;6.85;64.04;102569.13;5009803;28;19925;-83
2023/03/04 08:13:24;;;;;;;;;;;;;;;6.85;64.05;102574.50;4993141;28;19922;-85
2023/03/04 08:15:49;;;;;;;;;;;;;;;6.86;64.11;102576.22;5010108;28;20301;-83
2023/03/04 08:18:14;;;;;;;;;;;;;;;6.86;64.13;102580.75;4995754;28;19917;-83
2023/03/04 08:20:42;;;;;;;;;;;;;;;6.86;64.19;102578.06;5009400;28;20381;-84
2023/03/04 08:23:07;;;;;;;;;;;;;;;6.86;63.99;102586.13;5003231;28;19924;-86
2023/03/04 08:25:32;;;;;;;;;;;;;;;6.87;64.14;102585.09;5012537;28;20285;-83
2023/03/04 08:27:58;;;;;;;;;;;;;;;6.86;64.28;102586.94;4996372;28;19914;-84
2023/03/04 08:30:23;;;;;;;;;;;;;;;6.87;64.16;102574.34;5007434;28;19917;-83
2023/03/04 08:32:48;;;;;;;;;;;;;;;6.87;64.25;102575.19;4996609;28;19918;-82
2023/03/04 08:35:13;;;;;;;;;;;;;;;6.87;63.95;102579.72;5001700;28;20505;-83
2023/03/04 08:37:39;;;;;;;;;;;;;;;6.88;64.09;102574.19;5014605;28;19930;-84
2023/03/04 08:40:04;;;;;;;;;;;;;;;6.87;64.03;102572.50;5015650;28;19961;-85
2023/03/04 08:42:29;;;;;;;;;;;;;;;6.88;64.18;102576.88;5005734;28;20285;-83
2023/03/04 08:44:55;;;;;;;;;;;;;;;6.88;64.29;102576.88;4996304;28;19917;-82
2023/03/04 08:47:20;;;;;;;;;;;;;;;6.88;64.29;102582.25;4996428;28;19917;-82
2023/03/04 08:49:45;;;;;;;;;;;;;;;6.89;64.31;102570.47;5005677;28;20041;-81
2023/03/04 08:52:11;;;;;;;;;;;;;;;6.89;64.12;102572.34;5000131;28;19922;-81
2023/03/04 08:54:36;;;;;;;;;;;;;;;6.90;63.81;102580.22;4997898;28;19961;-80
2023/03/04 08:57:02;;;;;;;;;;;;;;;6.90;63.99;102569.50;4995808;28;19928;-82
2023/03/04 08:59:27;;;;;;;;;;;;;;;6.91;64.22;102573.00;4995146;28;19918;-82
2023/03/04 09:01:53;;;;;;;;;;;;;;;6.91;63.88;102571.16;5001754;28;19924;-81
2023/03/04 09:04:18;;;;;;;;;;;;;;;6.91;64.07;102573.84;5009286;28;19968;-82
2023/03/04 09:06:43;;;;;;;;;;;;;;;6.93;63.93;102571.00;4995325;28;19976;-81
2023/03/04 09:09:08;;;;;;;;;;;;;;;6.93;63.81;102574.50;4996260;28;19922;-82
2023/03/04 09:11:34;;;;;;;;;;;;;;;6.94;64.31;102570.78;4996054;28;20333;-83
2023/03/04 09:13:59;;;;;;;;;;;;;;;6.94;64.05;102569.97;5003529;28;19975;-83
2023/03/04 09:16:24;;;;;;;;;;;;;;;6.94;64.07;102561.91;4997486;28;20302;-85
2023/03/04 09:18:49;;;;;;;;;;;;;;;6.96;64.05;102564.44;4996092;28;19960;-85
2023/03/04 09:21:15;;;;;;;;;;;;;;;6.97;64.08;102564.25;5010004;28;20309;-82
2023/03/04 09:23:40;;;;;;;;;;;;;;;6.99;64.13;102562.22;5020605;28;19917;-84
2023/03/04 09:26:14;;;;;;;;;;;;;;;7.00;64.14;102558.50;5016498;28;19925;-84
2023/03/04 09:28:39;;;;;;;;;;;;;;;7.01;64.49;102559.38;4997803;28;19927;-83
2023/03/04 09:31:10;;;;;;;;;;;;;;;7.02;64.39;102559.19;5012061;28;20254;-85
2023/03/04 09:33:35;;;;;;;;;;;;;;;7.04;64.33;102545.59;5013367;28;19913;-85
2023/03/04 09:36:00;;;;;;;;;;;;;;;7.06;64.01;102552.47;5013169;28;20281;-84
2023/03/04 09:38:26;;;;;;;;;;;;;;;7.08;63.87;102557.63;5013766;28;19917;-82
2023/03/04 09:40:51;;;;;;;;;;;;;;;7.09;64.13;102544.03;5029365;28;19921;-85
2023/03/04 09:43:26;;;;;;;;;;;;;;;7.10;64.14;102545.69;5011841;28;19913;-84
2023/03/04 09:45:58;;;;;;;;;;;;;;;7.14;63.97;102538.16;5021117;28;19985;-87
2023/03/04 09:48:26;;;;;;;;;;;;;;;7.16;64.46;102541.50;5005240;28;19914;-85
2023/03/04 09:51:05;;;;;;;;;;;;;;;7.18;64.43;102538.63;4995039;28;19917;-83
2023/03/04 09:53:43;;;;;;;;;;;;;;;7.19;64.17;102535.75;5008842;28;20001;-84
2023/03/04 09:56:09;;;;;;;;;;;;;;;7.20;64.21;102540.13;4995818;28;19928;-85
2023/03/04 09:58:41;;;;;;;;;;;;;;;7.21;64.09;102539.13;5008434;28;19963;-83
2023/03/04 10:01:25;;;;;;;;;;;;;;;7.23;64.21;102547.84;4998186;28;19928;-86
2023/03/04 10:03:57;;;;;;;;;;;;;;;7.26;64.14;102549.34;4994675;28;20015;-80
2023/03/04 10:06:22;;;;;;;;;;;;;;;7.27;64.99;102554.53;4995078;28;20436;-80
2023/03/04 10:08:53;;;;;;;;;;;;;;;7.28;64.56;102549.97;5008790;28;19922;-80
2023/03/04 10:11:27;;;;;;;;;;;;;;;7.28;65.03;102561.59;5009324;28;20012;-83
2023/03/04 10:14:11;;;;;;;;;;;;;;;7.30;64.86;102553.34;5006187;28;19925;-82
2023/03/04 10:16:40;;;;;;;;;;;;;;;7.31;64.80;102558.56;5013071;28;19913;-80
2023/03/04 10:19:24;;;;;;;;;;;;;;;7.32;64.80;102552.16;5014817;28;19914;-83
2023/03/04 10:21:50;;;;;;;;;;;;;;;7.34;64.69;102550.13;5012671;28;20276;-82
2023/03/04 10:24:17;;;;;;;;;;;;;;;7.36;64.79;102548.09;5009828;28;19921;-83
2023/03/04 10:26:48;;;;;;;;;;;;;;;7.39;64.85;102551.44;4994926;28;20398;-81
2023/03/04 10:29:18;;;;;;;;;;;;;;;7.41;64.71;102552.09;4994204;28;20389;-83
2023/03/04 10:31:44;;;;;;;;;;;;;;;7.41;64.75;102542.19;5009339;28;19940;-83
2023/03/04 10:34:10;;;;;;;;;;;;;;;7.43;64.77;102550.91;5007246;28;20136;-82
2023/03/04 10:36:57;;;;;;;;;;;;;;;7.46;64.90;102557.78;5000514;28;19918;-82
2023/03/04 10:39:30;;;;;;;;;;;;;;;7.47;64.75;102556.78;4995950;28;19968;-82
2023/03/04 10:41:57;;;;;;;;;;;;;;;7.46;64.81;102545.19;4999461;28;19918;-83
2023/03/04 10:44:23;;;;;;;;;;;;;;;7.48;64.64;102539.63;4996646;28;19926;-84
2023/03/04 10:46:49;;;;;;;;;;;;;;;7.50;65.13;102551.03;5009110;28;20040;-83
2023/03/04 10:49:18;;;;;;;;;;;;;;;7.51;65.00;102536.56;4994263;28;19913;-83
2023/03/04 10:51:44;;;;;;;;;;;;;;;7.53;65.07;102534.53;5003519;28;19921;-83
2023/03/04 10:54:19;;;;;;;;;;;;;;;7.55;65.02;102536.03;5017499;28;19918;-83
2023/03/04 10:56:52;;;;;;;;;;;;;;;7.57;64.89;102538.56;5019790;28;19918;-84
2023/03/04 10:59:30;;;;;;;;;;;;;;;7.59;64.79;102525.78;5004633;28;19964;-82
2023/03/04 11:01:55;;;;;;;;;;;;;;;7.60;64.97;102527.44;5018547;28;19963;-81
2023/03/04 11:04:24;;;;;;;;;;;;;;;7.62;64.80;102530.78;5012859;28;19925;-81
2023/03/04 11:06:50;;;;;;;;;;;;;;;7.65;64.75;102529.59;4994614;28;19918;-83
2023/03/04 11:09:41;;;;;;;;;;;;;;;7.65;64.82;102516.97;4995628;28;20255;-84
2023/03/04 11:12:11;;;;;;;;;;;;;;;7.67;65.00;102523.00;5003364;28;19917;-83
2023/03/04 11:14:54;;;;;;;;;;;;;;;7.69;64.69;102526.38;4999090;28;20005;-83
2023/03/04 11:17:20;;;;;;;;;;;;;;;7.71;64.82;102515.41;4996841;28;19917;-83
2023/03/04 11:19:50;;;;;;;;;;;;;;;7.73;64.76;102513.38;4995529;28;20406;-82
2023/03/04 11:22:17;;;;;;;;;;;;;;;7.74;64.88;102505.16;4997985;28;19917;-82
2023/03/04 11:24:42;;;;;;;;;;;;;;;7.77;64.57;102506.63;5006312;28;20441;-81
2023/03/04 11:27:17;;;;;;;;;;;;;;;7.79;64.60;102499.22;4995724;28;19952;-78
2023/03/04 11:29:50;;;;;;;;;;;;;;;7.82;64.66;102498.84;4997262;28;20314;-85
2023/03/04 11:32:19;;;;;;;;;;;;;;;7.88;64.62;102494.59;4998840;28;19922;-86
2023/03/04 11:34:50;;;;;;;;;;;;;;;7.92;64.29;102490.53;5011117;28;19936;-82
2023/03/04 11:37:28;;;;;;;;;;;;;;;7.95;64.33;102482.09;5007212;28;20358;-82
2023/03/04 11:40:14;;;;;;;;;;;;;;;7.97;64.49;102482.75;4993473;28;19913;-83
2023/03/04 11:43:12;;;;;;;;;;;;;;;8.00;64.46;102490.47;4996964;28;20638;-81
2023/03/04 11:46:00;;;;;;;;;;;;;;;8.02;64.51;102485.72;4986402;28;19918;-83
2023/03/04 11:48:25;;;;;;;;;;;;;;;8.04;64.33;102483.69;5005774;28;19924;-82
2023/03/04 11:50:58;;;;;;;;;;;;;;;8.05;64.35;102477.28;5005460;28;19922;-82
2023/03/04 11:53:23;;;;;;;;;;;;;;;8.06;64.61;102478.94;4993102;28;19966;-82
2023/03/04 11:55:57;;;;;;;;;;;;;;;8.07;64.44;102472.56;5000215;28;20262;-82
2023/03/04 11:58:46;;;;;;;;;;;;;;;8.09;64.33;102470.53;5008568;28;19917;-81
2023/03/04 12:01:17;;;;;;;;;;;;;;;8.09;64.68;102465.16;4997132;28;19921;-81
2023/03/04 12:04:21;;;;;;;;;;;;;;;8.11;64.53;102465.78;4994449;28;19914;-82
2023/03/04 12:06:49;;;;;;;;;;;;;;;8.12;64.50;102454.00;4980917;28;19941;-82
2023/03/04 12:09:20;;;;;;;;;;;;;;;8.14;64.70;102464.56;4985651;28;19980;-81
2023/03/04 12:12:06;;;;;;;;;;;;;;;8.14;64.62;102462.75;4995643;28;19928;-81
2023/03/04 12:14:37;;;;;;;;;;;;;;;8.16;64.73;102451.78;5012882;28;19924;-82
2023/03/04 12:17:11;;;;;;;;;;;;;;;8.16;64.65;102449.91;4993111;28;19968;-80
2023/03/04 12:19:37;;;;;;;;;;;;;;;8.18;64.51;102445.19;4993165;28;19920;-78
2023/03/04 12:22:11;;;;;;;;;;;;;;;8.19;64.88;102436.09;5000259;28;20432;-81
2023/03/04 12:24:55;;;;;;;;;;;;;;;8.21;64.64;102435.91;4996766;28;19960;-80
2023/03/04 12:27:29;;;;;;;;;;;;;;;8.21;64.64;102430.50;5008003;28;19921;-81
2023/03/04 12:29:54;;;;;;;;;;;;;;;8.23;64.70;102431.16;4993228;28;19924;-81
2023/03/04 12:32:25;;;;;;;;;;;;;;;8.23;64.78;102423.91;4994212;28;20413;-81
2023/03/04 12:34:59;;;;;;;;;;;;;;;8.24;64.52;102417.53;4992961;28;20373;-82
2023/03/04 12:37:43;;;;;;;;;;;;;;;8.27;64.81;102413.63;5003890;28;19940;-81
2023/03/04 12:40:17;;;;;;;;;;;;;;;8.29;65.00;102405.34;5006877;28;19917;-81
2023/03/04 12:42:58;;;;;;;;;;;;;;;8.30;64.98;102404.34;5012555;28;19957;-82
2023/03/04 12:45:31;;;;;;;;;;;;;;;8.31;64.68;102397.94;5007953;28;19914;-81
2023/03/04 12:48:11;;;;;;;;;;;;;;;8.32;64.54;102400.44;5010612;28;20007;-81